sensor_id;sensor_type;location;lat;lon;timestamp;pressure;altitude;pressure_sealevel;temperature;humidity
49611;BME280;35515;48.766;9.176;2023-04-06T00:00:16;98609.09;;;2.93;57.14
49611;BME280;35515;48.766;9.176;2023-04-06T00:02:43;98597.56;;;2.92;57.19
49611;BME280;35515;48.766;9.176;2023-04-06T00:05:11;98601.31;;;2.81;58.39
49611;BME280;35515;48.766;9.176;2023-04-06T00:07:37;98594.25;;;2.98;57.88
49611;BME280;35515;48.766;9.176;2023-04-06T00:10:05;98604.84;;;2.82;58.56
49611;BME280;35515;48.766;9.176;2023-04-06T00:12:32;98591.53;;;2.90;57.36
49611;BME280;35515;48.766;9.176;2023-04-06T00:14:58;98589.44;;;3.02;57.16
49611;BME280;35515;48.766;9.176;2023-04-06T00:17:26;98589.16;;;2.69;58.21
49611;BME280;35515;48.766;9.176;2023-04-06T00:19:53;98595.28;;;2.79;58.03
49611;BME280;35515;48.766;9.176;2023-04-06T00:22:21;98593.81;;;2.85;57.78
49611;BME280;35515;48.766;9.176;2023-04-06T00:24:48;98589.38;;;2.76;58.64
49611;BME280;35515;48.766;9.176;2023-04-06T00:27:14;98586.25;;;2.80;58.08
49611;BME280;35515;48.766;9.176;2023-04-06T00:29:41;98594.03;;;2.92;57.50
49611;BME280;35515;48.766;9.176;2023-04-06T00:32:08;98598.13;;;2.78;58.19
49611;BME280;35515;48.766;9.176;2023-04-06T00:34:34;98596.03;;;2.90;57.08
49611;BME280;35515;48.766;9.176;2023-04-06T00:37:01;98590.25;;;2.76;58.08
49611;BME280;35515;48.766;9.176;2023-04-06T00:39:29;98590.91;;;2.78;58.04
49611;BME280;35515;48.766;9.176;2023-04-06T00:41:56;98588.00;;;2.72;58.05
49611;BME280;35515;48.766;9.176;2023-04-06T00:44:23;98591.06;;;2.77;57.63
49611;BME280;35515;48.766;9.176;2023-04-06T00:46:50;98573.81;;;2.71;58.65
49611;BME280;35515;48.766;9.176;2023-04-06T00:49:17;98583.03;;;2.77;58.58
49611;BME280;35515;48.766;9.176;2023-04-06T00:51:44;98577.25;;;2.81;58.49
49611;BME280;35515;48.766;9.176;2023-04-06T00:54:10;98584.88;;;2.76;57.74
49611;BME280;35515;48.766;9.176;2023-04-06T00:56:38;98579.28;;;2.88;57.47
49611;BME280;35515;48.766;9.176;2023-04-06T00:59:05;98573.88;;;2.79;57.84
49611;BME280;35515;48.766;9.176;2023-04-06T01:01:32;98570.44;;;2.69;58.71
49611;BME280;35515;48.766;9.176;2023-04-06T01:03:58;98564.41;;;2.67;58.38
49611;BME280;35515;48.766;9.176;2023-04-06T01:06:25;98568.53;;;2.61;59.03
49611;BME280;35515;48.766;9.176;2023-04-06T01:08:51;98571.72;;;2.65;58.80
49611;BME280;35515;48.766;9.176;2023-04-06T01:11:18;98563.63;;;2.57;58.68
49611;BME280;35515;48.766;9.176;2023-04-06T01:13:46;98567.41;;;2.64;58.78
49611;BME280;35515;48.766;9.176;2023-04-06T01:16:13;98564.84;;;2.62;58.55
49611;BME280;35515;48.766;9.176;2023-04-06T01:18:40;98571.25;;;2.51;59.32
49611;BME280;35515;48.766;9.176;2023-04-06T01:21:07;98571.34;;;2.60;59.24
49611;BME280;35515;48.766;9.176;2023-04-06T01:23:36;98560.34;;;2.63;59.44
49611;BME280;35515;48.766;9.176;2023-04-06T01:26:03;98570.97;;;2.55;59.78
49611;BME280;35515;48.766;9.176;2023-04-06T01:28:30;98557.91;;;2.51;59.54
49611;BME280;35515;48.766;9.176;2023-04-06T01:30:56;98559.19;;;2.47;60.05
49611;BME280;35515;48.766;9.176;2023-04-06T01:33:23;98562.31;;;2.61;59.27
49611;BME280;35515;48.766;9.176;2023-04-06T01:35:49;98561.13;;;2.55;59.28
49611;BME280;35515;48.766;9.176;2023-04-06T01:38:16;98554.44;;;2.41;59.24
49611;BME280;35515;48.766;9.176;2023-04-06T01:40:44;98558.72;;;2.34;60.49
49611;BME280;35515;48.766;9.176;2023-04-06T01:43:11;98558.56;;;2.36;60.33
49611;BME280;35515;48.766;9.176;2023-04-06T01:45:37;98548.50;;;2.47;60.01
49611;BME280;35515;48.766;9.176;2023-04-06T01:48:05;98545.97;;;2.46;60.15
49611;BME280;35515;48.766;9.176;2023-04-06T01:50:31;98546.53;;;2.49;60.57
49611;BME280;35515;48.766;9.176;2023-04-06T01:52:58;98544.00;;;2.48;59.56
49611;BME280;35515;48.766;9.176;2023-04-06T01:55:25;98543.06;;;2.39;59.27
49611;BME280;35515;48.766;9.176;2023-04-06T01:57:53;98550.84;;;2.32;59.38
49611;BME280;35515;48.766;9.176;2023-04-06T02:00:19;98542.69;;;2.34;58.87
49611;BME280;35515;48.766;9.176;2023-04-06T02:02:46;98546.41;;;2.23;59.94
49611;BME280;35515;48.766;9.176;2023-04-06T02:05:13;98536.56;;;2.24;59.88
49611;BME280;35515;48.766;9.176;2023-04-06T02:07:39;98544.06;;;2.20;59.66
49611;BME280;35515;48.766;9.176;2023-04-06T02:10:11;98548.94;;;2.25;59.87
49611;BME280;35515;48.766;9.176;2023-04-06T02:12:38;98537.03;;;2.37;59.41
49611;BME280;35515;48.766;9.176;2023-04-06T02:15:07;98545.28;;;2.26;59.78
49611;BME280;35515;48.766;9.176;2023-04-06T02:17:34;98545.03;;;2.19;60.17
49611;BME280;35515;48.766;9.176;2023-04-06T02:20:00;98540.28;;;2.13;60.03
49611;BME280;35515;48.766;9.176;2023-04-06T02:22:27;98540.50;;;2.02;61.27
49611;BME280;35515;48.766;9.176;2023-04-06T02:24:54;98536.69;;;2.04;60.80
49611;BME280;35515;48.766;9.176;2023-04-06T02:27:20;98532.66;;;2.00;60.71
49611;BME280;35515;48.766;9.176;2023-04-06T02:29:47;98538.47;;;2.13;60.86
49611;BME280;35515;48.766;9.176;2023-04-06T02:32:15;98541.81;;;2.15;60.29
49611;BME280;35515;48.766;9.176;2023-04-06T02:34:41;98549.16;;;2.13;60.64
49611;BME280;35515;48.766;9.176;2023-04-06T02:37:08;98536.69;;;2.04;61.09
49611;BME280;35515;48.766;9.176;2023-04-06T02:39:34;98540.34;;;2.03;61.31
49611;BME280;35515;48.766;9.176;2023-04-06T02:42:01;98537.19;;;2.17;60.51
49611;BME280;35515;48.766;9.176;2023-04-06T02:44:28;98540.03;;;2.06;60.61
49611;BME280;35515;48.766;9.176;2023-04-06T02:46:54;98534.59;;;1.98;60.94
49611;BME280;35515;48.766;9.176;2023-04-06T02:49:22;98528.28;;;1.99;61.19
49611;BME280;35515;48.766;9.176;2023-04-06T02:51:49;98528.56;;;1.96;61.11
49611;BME280;35515;48.766;9.176;2023-04-06T02:54:16;98530.56;;;1.94;61.05
49611;BME280;35515;48.766;9.176;2023-04-06T02:56:42;98530.34;;;2.05;61.22
49611;BME280;35515;48.766;9.176;2023-04-06T02:59:09;98527.56;;;1.97;61.23
49611;BME280;35515;48.766;9.176;2023-04-06T03:01:36;98529.56;;;1.95;61.83
49611;BME280;35515;48.766;9.176;2023-04-06T03:04:02;98527.97;;;2.02;61.43
49611;BME280;35515;48.766;9.176;2023-04-06T03:06:30;98523.84;;;1.90;61.74
49611;BME280;35515;48.766;9.176;2023-04-06T03:08:57;98532.50;;;2.02;61.12
49611;BME280;35515;48.766;9.176;2023-04-06T03:11:23;98529.56;;;1.95;61.26
49611;BME280;35515;48.766;9.176;2023-04-06T03:13:51;98530.81;;;2.00;60.98
49611;BME280;35515;48.766;9.176;2023-04-06T03:16:18;98523.88;;;1.80;61.80
49611;BME280;35515;48.766;9.176;2023-04-06T03:18:45;98515.03;;;1.79;62.24
49611;BME280;35515;48.766;9.176;2023-04-06T03:21:12;98522.19;;;1.79;62.17
49611;BME280;35515;48.766;9.176;2023-04-06T03:23:41;98513.34;;;1.78;62.41
49611;BME280;35515;48.766;9.176;2023-04-06T03:26:08;98521.06;;;1.81;62.07
49611;BME280;35515;48.766;9.176;2023-04-06T03:28:35;98525.94;;;1.86;62.09
49611;BME280;35515;48.766;9.176;2023-04-06T03:31:01;98519.72;;;1.95;61.30
49611;BME280;35515;48.766;9.176;2023-04-06T03:33:28;98529.22;;;1.80;62.27
49611;BME280;35515;48.766;9.176;2023-04-06T03:35:55;98530.38;;;1.77;62.01
49611;BME280;35515;48.766;9.176;2023-04-06T03:38:21;98538.38;;;1.77;62.51
49611;BME280;35515;48.766;9.176;2023-04-06T03:40:49;98529.72;;;1.93;61.10
49611;BME280;35515;48.766;9.176;2023-04-06T03:43:16;98529.44;;;1.87;61.20
49611;BME280;35515;48.766;9.176;2023-04-06T03:45:42;98534.13;;;1.84;60.98
49611;BME280;35515;48.766;9.176;2023-04-06T03:48:09;98539.88;;;1.80;61.20
49611;BME280;35515;48.766;9.176;2023-04-06T03:50:36;98541.00;;;1.87;60.91
49611;BME280;35515;48.766;9.176;2023-04-06T03:53:02;98537.09;;;1.81;61.15
49611;BME280;35515;48.766;9.176;2023-04-06T03:55:29;98532.50;;;1.74;61.93
49611;BME280;35515;48.766;9.176;2023-04-06T03:57:57;98537.28;;;1.70;62.21
49611;BME280;35515;48.766;9.176;2023-04-06T04:00:24;98544.81;;;1.84;62.62
49611;BME280;35515;48.766;9.176;2023-04-06T04:02:50;98533.53;;;1.91;62.35
49611;BME280;35515;48.766;9.176;2023-04-06T04:05:17;98538.75;;;1.82;62.09
49611;BME280;35515;48.766;9.176;2023-04-06T04:07:44;98539.63;;;1.83;62.24
49611;BME280;35515;48.766;9.176;2023-04-06T04:10:10;98547.38;;;1.76;61.92
49611;BME280;35515;48.766;9.176;2023-04-06T04:12:37;98554.00;;;1.72;62.53
49611;BME280;35515;48.766;9.176;2023-04-06T04:15:06;98544.00;;;1.74;61.86
49611;BME280;35515;48.766;9.176;2023-04-06T04:17:33;98550.22;;;1.65;62.74
49611;BME280;35515;48.766;9.176;2023-04-06T04:19:59;98555.97;;;1.70;62.99
49611;BME280;35515;48.766;9.176;2023-04-06T04:22:26;98556.28;;;1.67;63.32
49611;BME280;35515;48.766;9.176;2023-04-06T04:24:53;98560.22;;;1.63;63.58
49611;BME280;35515;48.766;9.176;2023-04-06T04:27:20;98554.91;;;1.63;63.65
49611;BME280;35515;48.766;9.176;2023-04-06T04:29:47;98556.56;;;1.64;62.61
49611;BME280;35515;48.766;9.176;2023-04-06T04:32:15;98562.09;;;1.53;63.46
49611;BME280;35515;48.766;9.176;2023-04-06T04:34:41;98558.03;;;1.48;63.09
49611;BME280;35515;48.766;9.176;2023-04-06T04:37:08;98555.06;;;1.52;63.69
49611;BME280;35515;48.766;9.176;2023-04-06T04:39:35;98559.13;;;1.56;64.21
49611;BME280;35515;48.766;9.176;2023-04-06T04:42:01;98557.72;;;1.61;63.37
49611;BME280;35515;48.766;9.176;2023-04-06T04:44:28;98559.69;;;1.59;63.95
49611;BME280;35515;48.766;9.176;2023-04-06T04:46:55;98555.34;;;1.48;64.11
49611;BME280;35515;48.766;9.176;2023-04-06T04:49:23;98564.06;;;1.50;64.23
49611;BME280;35515;48.766;9.176;2023-04-06T04:51:50;98560.56;;;1.50;64.88
49611;BME280;35515;48.766;9.176;2023-04-06T04:54:17;98559.72;;;1.49;64.39
49611;BME280;35515;48.766;9.176;2023-04-06T04:56:44;98563.94;;;1.52;64.11
49611;BME280;35515;48.766;9.176;2023-04-06T04:59:11;98558.59;;;1.52;64.60
49611;BME280;35515;48.766;9.176;2023-04-06T05:01:38;98567.53;;;1.61;64.36
49611;BME280;35515;48.766;9.176;2023-04-06T05:04:04;98556.75;;;1.53;65.18
49611;BME280;35515;48.766;9.176;2023-04-06T05:06:32;98565.84;;;1.60;64.08
49611;BME280;35515;48.766;9.176;2023-04-06T05:08:59;98564.91;;;1.51;64.75
49611;BME280;35515;48.766;9.176;2023-04-06T05:11:25;98571.50;;;1.57;64.73
49611;BME280;35515;48.766;9.176;2023-04-06T05:13:53;98565.34;;;1.46;64.62
49611;BME280;35515;48.766;9.176;2023-04-06T05:16:19;98566.47;;;1.44;65.17
49611;BME280;35515;48.766;9.176;2023-04-06T05:18:47;98571.50;;;1.57;64.43
49611;BME280;35515;48.766;9.176;2023-04-06T05:21:14;98574.00;;;1.68;63.55
49611;BME280;35515;48.766;9.176;2023-04-06T05:23:42;98578.31;;;1.69;63.64
49611;BME280;35515;48.766;9.176;2023-04-06T05:26:08;98580.00;;;1.70;63.73
49611;BME280;35515;48.766;9.176;2023-04-06T05:28:35;98579.44;;;1.76;63.64
49611;BME280;35515;48.766;9.176;2023-04-06T05:31:02;98578.72;;;1.84;62.70
49611;BME280;35515;48.766;9.176;2023-04-06T05:33:29;98580.53;;;1.83;62.84
49611;BME280;35515;48.766;9.176;2023-04-06T05:35:56;98581.81;;;1.79;63.17
49611;BME280;35515;48.766;9.176;2023-04-06T05:38:23;98593.19;;;1.81;62.99
49611;BME280;35515;48.766;9.176;2023-04-06T05:40:51;98586.84;;;1.82;63.18
49611;BME280;35515;48.766;9.176;2023-04-06T05:43:17;98588.63;;;1.92;62.26
49611;BME280;35515;48.766;9.176;2023-04-06T05:45:44;98588.22;;;1.87;63.03
49611;BME280;35515;48.766;9.176;2023-04-06T05:48:11;98591.66;;;1.79;62.92
49611;BME280;35515;48.766;9.176;2023-04-06T05:50:37;98593.69;;;1.95;63.35
49611;BME280;35515;48.766;9.176;2023-04-06T05:53:04;98592.81;;;2.04;62.24
49611;BME280;35515;48.766;9.176;2023-04-06T05:55:30;98589.94;;;2.15;62.08
49611;BME280;35515;48.766;9.176;2023-04-06T05:57:58;98583.34;;;2.10;62.44
49611;BME280;35515;48.766;9.176;2023-04-06T06:00:25;98576.97;;;2.21;61.19
49611;BME280;35515;48.766;9.176;2023-04-06T06:02:52;98588.22;;;2.24;60.85
49611;BME280;35515;48.766;9.176;2023-04-06T06:05:18;98591.88;;;2.23;61.23
49611;BME280;35515;48.766;9.176;2023-04-06T06:07:45;98587.97;;;2.17;61.31
49611;BME280;35515;48.766;9.176;2023-04-06T06:10:12;98594.28;;;2.16;61.45
49611;BME280;35515;48.766;9.176;2023-04-06T06:12:38;98599.06;;;2.23;61.59
49611;BME280;35515;48.766;9.176;2023-04-06T06:15:07;98597.28;;;2.31;61.19
49611;BME280;35515;48.766;9.176;2023-04-06T06:17:34;98593.09;;;2.29;61.83
49611;BME280;35515;48.766;9.176;2023-04-06T06:20:01;98601.50;;;2.34;60.82
49611;BME280;35515;48.766;9.176;2023-04-06T06:22:27;98603.81;;;2.47;60.48
49611;BME280;35515;48.766;9.176;2023-04-06T06:24:54;98597.38;;;2.40;61.61
49611;BME280;35515;48.766;9.176;2023-04-06T06:27:21;98594.13;;;2.46;61.92
49611;BME280;35515;48.766;9.176;2023-04-06T06:29:47;98595.06;;;2.55;60.97
49611;BME280;35515;48.766;9.176;2023-04-06T06:32:15;98590.38;;;2.57;61.50
49611;BME280;35515;48.766;9.176;2023-04-06T06:34:42;98594.81;;;2.66;60.34
49611;BME280;35515;48.766;9.176;2023-04-06T06:37:08;98592.13;;;2.66;61.12
49611;BME280;35515;48.766;9.176;2023-04-06T06:39:35;98600.00;;;2.67;60.42
49611;BME280;35515;48.766;9.176;2023-04-06T06:42:02;98591.38;;;2.74;60.39
49611;BME280;35515;48.766;9.176;2023-04-06T06:44:28;98593.31;;;2.81;60.22
49611;BME280;35515;48.766;9.176;2023-04-06T06:46:55;98596.03;;;2.90;59.77
49611;BME280;35515;48.766;9.176;2023-04-06T06:49:23;98591.97;;;3.04;60.33
49611;BME280;35515;48.766;9.176;2023-04-06T06:51:50;98599.56;;;3.08;60.40
49611;BME280;35515;48.766;9.176;2023-04-06T06:54:16;98601.47;;;3.16;59.61
49611;BME280;35515;48.766;9.176;2023-04-06T06:56:43;98593.78;;;3.21;59.33
49611;BME280;35515;48.766;9.176;2023-04-06T06:59:10;98606.41;;;3.29;59.99
49611;BME280;35515;48.766;9.176;2023-04-06T07:01:36;98601.41;;;3.34;59.36
49611;BME280;35515;48.766;9.176;2023-04-06T07:04:03;98601.78;;;3.39;58.03
49611;BME280;35515;48.766;9.176;2023-04-06T07:06:31;98601.00;;;3.47;58.39
49611;BME280;35515;48.766;9.176;2023-04-06T07:08:58;98599.16;;;3.47;57.29
49611;BME280;35515;48.766;9.176;2023-04-06T07:11:25;98601.88;;;3.56;56.99
49611;BME280;35515;48.766;9.176;2023-04-06T07:13:51;98610.84;;;3.64;56.19
49611;BME280;35515;48.766;9.176;2023-04-06T07:16:18;98599.50;;;3.71;57.18
49611;BME280;35515;48.766;9.176;2023-04-06T07:18:44;98603.38;;;3.76;56.73
49611;BME280;35515;48.766;9.176;2023-04-06T07:21:11;98604.41;;;3.83;57.25
49611;BME280;35515;48.766;9.176;2023-04-06T07:23:39;98596.06;;;3.87;56.95
49611;BME280;35515;48.766;9.176;2023-04-06T07:26:06;98606.78;;;3.87;58.27
49611;BME280;35515;48.766;9.176;2023-04-06T07:28:32;98607.47;;;3.97;58.39
49611;BME280;35515;48.766;9.176;2023-04-06T07:30:59;98606.16;;;4.01;57.91
49611;BME280;35515;48.766;9.176;2023-04-06T07:33:26;98610.88;;;4.07;57.56
49611;BME280;35515;48.766;9.176;2023-04-06T07:35:55;98606.25;;;4.17;57.61
49611;BME280;35515;48.766;9.176;2023-04-06T07:38:22;98603.22;;;4.21;58.02
49611;BME280;35515;48.766;9.176;2023-04-06T07:40:50;98602.22;;;4.22;57.20
49611;BME280;35515;48.766;9.176;2023-04-06T07:43:16;98600.94;;;4.34;57.13
49611;BME280;35515;48.766;9.176;2023-04-06T07:45:43;98592.06;;;4.42;56.91
49611;BME280;35515;48.766;9.176;2023-04-06T07:48:09;98593.25;;;4.47;57.33
49611;BME280;35515;48.766;9.176;2023-04-06T07:50:36;98591.94;;;4.60;56.99
49611;BME280;35515;48.766;9.176;2023-04-06T07:53:03;98595.66;;;4.75;56.95
49611;BME280;35515;48.766;9.176;2023-04-06T07:55:30;98597.69;;;4.98;55.69
49611;BME280;35515;48.766;9.176;2023-04-06T07:57:58;98590.81;;;5.03;55.50
49611;BME280;35515;48.766;9.176;2023-04-06T08:00:25;98597.69;;;5.06;55.64
49611;BME280;35515;48.766;9.176;2023-04-06T08:02:51;98588.16;;;5.12;54.78
49611;BME280;35515;48.766;9.176;2023-04-06T08:05:18;98592.84;;;5.18;54.88
49611;BME280;35515;48.766;9.176;2023-04-06T08:07:45;98586.09;;;5.30;54.71
49611;BME280;35515;48.766;9.176;2023-04-06T08:10:11;98595.16;;;5.46;54.43
49611;BME280;35515;48.766;9.176;2023-04-06T08:12:38;98598.38;;;5.41;54.03
49611;BME280;35515;48.766;9.176;2023-04-06T08:15:07;98594.34;;;5.45;54.24
49611;BME280;35515;48.766;9.176;2023-04-06T08:17:33;98599.38;;;5.48;54.75
49611;BME280;35515;48.766;9.176;2023-04-06T08:20:00;98605.44;;;5.50;54.72
49611;BME280;35515;48.766;9.176;2023-04-06T08:22:28;98599.00;;;5.68;54.14
49611;BME280;35515;48.766;9.176;2023-04-06T08:24:55;98600.16;;;5.74;53.71
49611;BME280;35515;48.766;9.176;2023-04-06T08:27:21;98599.47;;;5.88;53.77
49611;BME280;35515;48.766;9.176;2023-04-06T08:29:49;98602.81;;;5.90;53.60
49611;BME280;35515;48.766;9.176;2023-04-06T08:32:17;98600.25;;;5.97;53.51
49611;BME280;35515;48.766;9.176;2023-04-06T08:34:44;98598.38;;;6.14;52.82
49611;BME280;35515;48.766;9.176;2023-04-06T08:37:11;98586.75;;;6.22;53.32
49611;BME280;35515;48.766;9.176;2023-04-06T08:39:37;98594.97;;;6.28;53.17
49611;BME280;35515;48.766;9.176;2023-04-06T08:42:10;98589.41;;;6.30;53.05
49611;BME280;35515;48.766;9.176;2023-04-06T08:44:37;98592.47;;;6.27;51.84
49611;BME280;35515;48.766;9.176;2023-04-06T08:47:04;98585.16;;;6.44;51.36
49611;BME280;35515;48.766;9.176;2023-04-06T08:49:33;98593.94;;;6.61;50.91
49611;BME280;35515;48.766;9.176;2023-04-06T08:52:00;98595.63;;;6.62;50.89
49611;BME280;35515;48.766;9.176;2023-04-06T08:54:27;98590.88;;;6.72;49.70
49611;BME280;35515;48.766;9.176;2023-04-06T08:56:54;98589.13;;;6.79;49.93
49611;BME280;35515;48.766;9.176;2023-04-06T08:59:23;98579.34;;;6.86;50.22
49611;BME280;35515;48.766;9.176;2023-04-06T09:01:51;98579.66;;;6.83;50.12
49611;BME280;35515;48.766;9.176;2023-04-06T09:04:19;98567.06;;;6.84;50.02
49611;BME280;35515;48.766;9.176;2023-04-06T09:06:47;98573.22;;;6.93;47.55
49611;BME280;35515;48.766;9.176;2023-04-06T09:09:15;98572.19;;;6.94;46.99
49611;BME280;35515;48.766;9.176;2023-04-06T09:11:46;98574.19;;;7.00;46.29
49611;BME280;35515;48.766;9.176;2023-04-06T09:14:13;98569.81;;;6.99;46.92
49611;BME280;35515;48.766;9.176;2023-04-06T09:16:40;98570.63;;;6.99;47.29
49611;BME280;35515;48.766;9.176;2023-04-06T09:19:08;98572.06;;;7.10;47.53
49611;BME280;35515;48.766;9.176;2023-04-06T09:21:35;98571.94;;;7.03;47.87
49611;BME280;35515;48.766;9.176;2023-04-06T09:24:04;98568.47;;;7.18;47.42
49611;BME280;35515;48.766;9.176;2023-04-06T09:26:31;98570.63;;;7.23;47.60
49611;BME280;35515;48.766;9.176;2023-04-06T09:28:59;98573.13;;;7.24;46.86
49611;BME280;35515;48.766;9.176;2023-04-06T09:31:27;98568.97;;;7.36;46.09
49611;BME280;35515;48.766;9.176;2023-04-06T09:33:55;98562.69;;;7.44;45.95
49611;BME280;35515;48.766;9.176;2023-04-06T09:36:29;98563.25;;;7.55;45.78
49611;BME280;35515;48.766;9.176;2023-04-06T09:38:59;98563.06;;;7.71;44.99
49611;BME280;35515;48.766;9.176;2023-04-06T09:41:28;98564.28;;;7.83;43.89
49611;BME280;35515;48.766;9.176;2023-04-06T09:44:02;98554.97;;;7.86;42.56
49611;BME280;35515;48.766;9.176;2023-04-06T09:46:31;98560.13;;;7.96;42.26
49611;BME280;35515;48.766;9.176;2023-04-06T09:48:58;98563.34;;;8.06;41.32
49611;BME280;35515;48.766;9.176;2023-04-06T09:51:27;98554.97;;;8.01;40.99
49611;BME280;35515;48.766;9.176;2023-04-06T09:53:57;98551.81;;;7.97;41.18
49611;BME280;35515;48.766;9.176;2023-04-06T09:56:28;98550.34;;;7.95;42.15
49611;BME280;35515;48.766;9.176;2023-04-06T09:59:02;98557.78;;;7.93;42.18
49611;BME280;35515;48.766;9.176;2023-04-06T10:01:33;98548.94;;;7.99;41.30
49611;BME280;35515;48.766;9.176;2023-04-06T10:04:10;98552.00;;;8.11;40.33
49611;BME280;35515;48.766;9.176;2023-04-06T10:06:39;98548.28;;;8.12;40.96
49611;BME280;35515;48.766;9.176;2023-04-06T10:09:07;98548.09;;;8.13;40.72
49611;BME280;35515;48.766;9.176;2023-04-06T10:11:36;98546.47;;;8.34;39.73
49611;BME280;35515;48.766;9.176;2023-04-06T10:14:03;98549.75;;;8.29;39.57
49611;BME280;35515;48.766;9.176;2023-04-06T10:16:30;98544.50;;;8.43;38.34
49611;BME280;35515;48.766;9.176;2023-04-06T10:19:03;98549.25;;;8.41;38.26
49611;BME280;35515;48.766;9.176;2023-04-06T10:21:32;98544.63;;;8.34;38.75
49611;BME280;35515;48.766;9.176;2023-04-06T10:24:00;98543.13;;;8.32;39.23
49611;BME280;35515;48.766;9.176;2023-04-06T10:26:27;98535.66;;;8.34;38.62
49611;BME280;35515;48.766;9.176;2023-04-06T10:29:02;98535.53;;;8.42;38.24
49611;BME280;35515;48.766;9.176;2023-04-06T10:31:29;98540.97;;;8.57;37.92
49611;BME280;35515;48.766;9.176;2023-04-06T10:33:57;98541.31;;;8.54;38.37
49611;BME280;35515;48.766;9.176;2023-04-06T10:36:26;98540.31;;;8.77;37.47
49611;BME280;35515;48.766;9.176;2023-04-06T10:38:57;98532.13;;;8.70;37.38
49611;BME280;35515;48.766;9.176;2023-04-06T10:41:24;98532.00;;;8.78;37.31
49611;BME280;35515;48.766;9.176;2023-04-06T10:43:59;98527.00;;;8.75;37.49
49611;BME280;35515;48.766;9.176;2023-04-06T10:46:27;98532.53;;;8.89;37.95
49611;BME280;35515;48.766;9.176;2023-04-06T10:48:54;98525.69;;;8.93;37.42
49611;BME280;35515;48.766;9.176;2023-04-06T10:51:25;98525.56;;;9.23;37.20
49611;BME280;35515;48.766;9.176;2023-04-06T10:53:54;98526.31;;;9.16;36.79
49611;BME280;35515;48.766;9.176;2023-04-06T10:56:22;98518.16;;;9.10;36.88
49611;BME280;35515;48.766;9.176;2023-04-06T10:58:52;98524.16;;;9.05;36.51
49611;BME280;35515;48.766;9.176;2023-04-06T11:01:23;98526.88;;;9.05;37.22
49611;BME280;35515;48.766;9.176;2023-04-06T11:03:52;98525.94;;;9.19;38.18
49611;BME280;35515;48.766;9.176;2023-04-06T11:06:20;98522.59;;;9.17;36.39
49611;BME280;35515;48.766;9.176;2023-04-06T11:08:47;98521.19;;;9.22;36.19
49611;BME280;35515;48.766;9.176;2023-04-06T11:11:15;98519.94;;;9.24;37.12
49611;BME280;35515;48.766;9.176;2023-04-06T11:13:45;98521.31;;;9.13;37.34
49611;BME280;35515;48.766;9.176;2023-04-06T11:16:13;98516.94;;;9.12;36.06
49611;BME280;35515;48.766;9.176;2023-04-06T11:18:49;98506.63;;;9.23;36.00
49611;BME280;35515;48.766;9.176;2023-04-06T11:21:16;98506.69;;;9.29;36.74
49611;BME280;35515;48.766;9.176;2023-04-06T11:23:43;98503.38;;;9.34;36.43
49611;BME280;35515;48.766;9.176;2023-04-06T11:26:11;98489.84;;;9.34;35.80
49611;BME280;35515;48.766;9.176;2023-04-06T11:28:38;98493.75;;;9.53;35.28
49611;BME280;35515;48.766;9.176;2023-04-06T11:31:05;98494.13;;;9.50;35.41
49611;BME280;35515;48.766;9.176;2023-04-06T11:33:35;98491.63;;;9.48;34.86
49611;BME280;35515;48.766;9.176;2023-04-06T11:36:03;98478.88;;;9.42;35.52
49611;BME280;35515;48.766;9.176;2023-04-06T11:38:30;98490.69;;;9.63;36.21
49611;BME280;35515;48.766;9.176;2023-04-06T11:40:57;98482.22;;;9.79;35.83
49611;BME280;35515;48.766;9.176;2023-04-06T11:43:27;98482.03;;;9.87;34.50
49611;BME280;35515;48.766;9.176;2023-04-06T11:45:59;98484.25;;;9.64;35.25
49611;BME280;35515;48.766;9.176;2023-04-06T11:48:26;98484.38;;;9.91;35.19
49611;BME280;35515;48.766;9.176;2023-04-06T11:50:55;98482.53;;;10.04;35.05
49611;BME280;35515;48.766;9.176;2023-04-06T11:53:24;98469.50;;;9.73;34.66
49611;BME280;35515;48.766;9.176;2023-04-06T11:55:50;98473.88;;;9.74;34.26
49611;BME280;35515;48.766;9.176;2023-04-06T11:58:17;98472.44;;;9.78;34.54
49611;BME280;35515;48.766;9.176;2023-04-06T12:00:44;98479.56;;;9.93;33.91
49611;BME280;35515;48.766;9.176;2023-04-06T12:03:12;98465.72;;;10.09;33.76
49611;BME280;35515;48.766;9.176;2023-04-06T12:05:39;98465.06;;;10.07;33.70
49611;BME280;35515;48.766;9.176;2023-04-06T12:08:06;98463.44;;;10.19;34.24
49611;BME280;35515;48.766;9.176;2023-04-06T12:10:34;98462.59;;;10.12;34.27
49611;BME280;35515;48.766;9.176;2023-04-06T12:13:00;98459.22;;;10.03;34.49
49611;BME280;35515;48.766;9.176;2023-04-06T12:15:27;98460.47;;;10.01;34.55
49611;BME280;35515;48.766;9.176;2023-04-06T12:17:59;98461.06;;;9.96;34.31
49611;BME280;35515;48.766;9.176;2023-04-06T12:20:28;98466.31;;;10.11;33.77
49611;BME280;35515;48.766;9.176;2023-04-06T12:22:55;98457.19;;;10.12;33.79
49611;BME280;35515;48.766;9.176;2023-04-06T12:25:22;98452.22;;;10.23;34.16
49611;BME280;35515;48.766;9.176;2023-04-06T12:27:50;98443.00;;;10.10;33.79
49611;BME280;35515;48.766;9.176;2023-04-06T12:30:17;98444.91;;;10.23;33.49
49611;BME280;35515;48.766;9.176;2023-04-06T12:32:43;98435.09;;;10.15;33.69
49611;BME280;35515;48.766;9.176;2023-04-06T12:35:10;98432.63;;;10.27;33.09
49611;BME280;35515;48.766;9.176;2023-04-06T12:37:41;98433.13;;;10.37;33.12
49611;BME280;35515;48.766;9.176;2023-04-06T12:40:08;98425.00;;;10.51;33.06
49611;BME280;35515;48.766;9.176;2023-04-06T12:42:38;98422.31;;;10.58;32.28
49611;BME280;35515;48.766;9.176;2023-04-06T12:45:08;98427.91;;;10.43;33.11
49611;BME280;35515;48.766;9.176;2023-04-06T12:47:35;98427.72;;;10.44;33.17
49611;BME280;35515;48.766;9.176;2023-04-06T12:50:03;98431.88;;;10.47;33.79
49611;BME280;35515;48.766;9.176;2023-04-06T12:52:30;98421.47;;;10.44;33.44
49611;BME280;35515;48.766;9.176;2023-04-06T12:55:00;98416.66;;;10.46;33.39
49611;BME280;35515;48.766;9.176;2023-04-06T12:57:26;98426.25;;;10.62;32.69
49611;BME280;35515;48.766;9.176;2023-04-06T12:59:53;98413.97;;;10.59;33.15
49611;BME280;35515;48.766;9.176;2023-04-06T13:02:21;98418.13;;;10.55;32.68
49611;BME280;35515;48.766;9.176;2023-04-06T13:04:48;98422.09;;;10.59;33.08
49611;BME280;35515;48.766;9.176;2023-04-06T13:07:15;98417.09;;;10.49;33.08
49611;BME280;35515;48.766;9.176;2023-04-06T13:09:42;98415.00;;;10.51;33.27